createdAt,value
2017-12-31T00:02:17.856Z,9.80
2017-12-31T00:04:50.008Z,9.50
2017-12-31T00:07:24.206Z,9.60
2017-12-31T00:09:57.985Z,9.50
2017-12-31T00:12:31.963Z,9.40
2017-12-31T00:15:04.132Z,9.30
2017-12-31T00:17:37.293Z,9.30
2017-12-31T00:20:09.603Z,9.30
2017-12-31T00:22:41.749Z,9.30
2017-12-31T00:25:16.156Z,9.10
2017-12-31T00:27:51.471Z,9.00
2017-12-31T00:30:24.931Z,8.90
2017-12-31T00:32:57.325Z,8.70
2017-12-31T00:35:31.830Z,8.10
2017-12-31T00:38:04.925Z,8.30
2017-12-31T00:40:37.993Z,7.80
2017-12-31T00:43:09.674Z,7.90
2017-12-31T00:45:42.085Z,7.70
2017-12-31T00:48:16.249Z,7.30
2017-12-31T00:50:48.212Z,7.50
2017-12-31T00:53:21.294Z,6.90
2017-12-31T00:55:53.834Z,6.70
2017-12-31T00:58:26.485Z,6.80
2017-12-31T01:01:00.135Z,6.60
2017-12-31T01:03:34.882Z,6.60
2017-12-31T01:06:07.555Z,6.60
2017-12-31T01:08:39.739Z,6.30
2017-12-31T01:11:13.335Z,6.00
2017-12-31T01:13:45.851Z,6.00
2017-12-31T01:16:18.213Z,6.00
2017-12-31T01:18:50.586Z,6.00
2017-12-31T01:21:23.090Z,5.90
2017-12-31T01:23:56.122Z,5.90
2017-12-31T01:26:30.598Z,6.10
2017-12-31T01:29:05.001Z,5.70
2017-12-31T01:31:38.830Z,5.90
2017-12-31T01:34:11.167Z,5.50
2017-12-31T01:36:44.950Z,5.60
2017-12-31T01:39:17.205Z,5.30
2017-12-31T01:41:59.558Z,5.30
2017-12-31T01:44:35.172Z,5.30
2017-12-31T01:47:07.071Z,5.40
2017-12-31T01:49:40.650Z,5.40
2017-12-31T01:52:16.529Z,5.40
2017-12-31T01:54:49.836Z,5.20
2017-12-31T01:57:22.014Z,5.30
2017-12-31T01:59:55.338Z,5.30
2017-12-31T02:02:32.900Z,5.40
2017-12-31T02:05:08.736Z,5.40
2017-12-31T02:07:43.815Z,5.30
2017-12-31T02:10:18.191Z,5.30
2017-12-31T02:12:51.332Z,5.10
2017-12-31T02:15:24.896Z,5.10
2017-12-31T02:17:57.205Z,5.00
2017-12-31T02:20:29.650Z,5.10
2017-12-31T02:23:04.817Z,5.10
2017-12-31T02:25:38.277Z,5.10
2017-12-31T02:28:11.552Z,5.10
2017-12-31T02:33:19.983Z,5.10
2017-12-31T02:35:52.323Z,4.80
2017-12-31T02:38:27.274Z,4.90
2017-12-31T02:41:02.064Z,4.50
2017-12-31T02:43:34.315Z,4.40
2017-12-31T02:46:07.165Z,4.70
2017-12-31T02:48:39.828Z,4.90
2017-12-31T02:51:14.127Z,4.60
2017-12-31T02:53:46.211Z,4.80
2017-12-31T02:56:20.390Z,4.80
2017-12-31T02:58:52.969Z,4.80
2017-12-31T03:01:25.239Z,4.60
2017-12-31T03:03:59.425Z,4.80
2017-12-31T03:06:32.080Z,4.70
2017-12-31T03:09:05.507Z,4.80
2017-12-31T03:11:37.637Z,4.80
2017-12-31T03:14:11.099Z,4.50
2017-12-31T03:16:46.713Z,4.80
2017-12-31T03:19:20.061Z,4.50
2017-12-31T03:21:52.754Z,4.60
2017-12-31T03:24:25.278Z,4.80
2017-12-31T03:26:57.437Z,4.80
2017-12-31T03:29:32.149Z,4.60
2017-12-31T03:32:03.835Z,4.70
2017-12-31T03:34:36.369Z,4.80
2017-12-31T03:37:08.819Z,4.70
2017-12-31T03:39:43.767Z,4.50
2017-12-31T03:42:25.535Z,4.40
2017-12-31T03:44:59.635Z,4.50
2017-12-31T03:47:35.007Z,4.20
2017-12-31T03:50:09.887Z,4.30
2017-12-31T03:52:43.012Z,4.50
2017-12-31T03:57:51.252Z,4.50
2017-12-31T04:00:25.564Z,4.40
2017-12-31T04:02:58.877Z,4.20
2017-12-31T04:05:31.381Z,4.20
2017-12-31T04:08:04.863Z,4.20
2017-12-31T04:10:37.585Z,3.90
2017-12-31T04:13:09.848Z,4.20
2017-12-31T04:15:42.433Z,3.60
2017-12-31T04:18:14.874Z,3.60
2017-12-31T04:20:47.228Z,3.70
2017-12-31T04:23:20.268Z,3.60
2017-12-31T04:25:52.401Z,3.60
2017-12-31T04:28:25.450Z,3.90
2017-12-31T04:31:02.049Z,3.60
2017-12-31T04:33:34.397Z,3.30
2017-12-31T04:36:07.565Z,3.30
2017-12-31T04:38:43.270Z,3.10
2017-12-31T04:41:19.293Z,3.00
2017-12-31T04:43:53.089Z,3.00
2017-12-31T04:46:26.433Z,3.10
2017-12-31T04:49:02.472Z,3.00
2017-12-31T04:51:36.658Z,3.40
2017-12-31T04:54:12.999Z,3.00
2017-12-31T04:56:49.738Z,3.10
2017-12-31T04:59:22.706Z,2.80
2017-12-31T05:04:35.864Z,3.00
2017-12-31T05:07:09.876Z,2.70
2017-12-31T05:09:43.352Z,2.80
2017-12-31T05:12:18.364Z,3.10
2017-12-31T05:14:51.971Z,2.80
2017-12-31T05:17:26.312Z,2.80
2017-12-31T05:19:58.552Z,2.80
2017-12-31T05:22:31.482Z,2.80
2017-12-31T05:25:03.642Z,2.70
2017-12-31T05:27:35.888Z,2.80
2017-12-31T05:30:09.298Z,2.70
2017-12-31T05:32:41.623Z,2.80
2017-12-31T05:35:16.481Z,2.90
2017-12-31T05:37:49.544Z,2.60
2017-12-31T05:40:22.301Z,2.60
2017-12-31T05:42:54.659Z,2.70
2017-12-31T05:45:28.256Z,2.50
2017-12-31T05:47:59.732Z,2.40
2017-12-31T05:50:32.022Z,2.70
2017-12-31T05:53:04.184Z,2.60
2017-12-31T05:55:36.474Z,2.70
2017-12-31T05:58:11.011Z,2.60
2017-12-31T06:00:45.462Z,2.60
2017-12-31T06:03:17.950Z,2.50
2017-12-31T06:05:49.770Z,2.20
2017-12-31T06:08:22.237Z,2.50
2017-12-31T06:10:56.242Z,2.20
2017-12-31T06:13:28.575Z,2.30
2017-12-31T06:16:00.634Z,2.20
2017-12-31T06:18:34.663Z,2.30
2017-12-31T06:21:06.520Z,2.30
2017-12-31T06:23:39.561Z,2.00
2017-12-31T06:26:13.233Z,1.90
2017-12-31T06:28:48.400Z,1.90
2017-12-31T06:31:21.540Z,2.10
2017-12-31T06:33:55.029Z,2.10
2017-12-31T06:36:28.434Z,2.10
2017-12-31T06:39:01.237Z,2.00
2017-12-31T06:41:34.151Z,2.00
2017-12-31T06:44:06.943Z,1.70
2017-12-31T06:46:39.069Z,2.00
2017-12-31T06:49:12.656Z,1.70
2017-12-31T06:51:45.692Z,1.90
2017-12-31T06:54:18.050Z,1.80
2017-12-31T06:56:51.109Z,1.80
2017-12-31T06:59:22.903Z,1.70
2017-12-31T07:01:56.883Z,1.90
2017-12-31T07:04:28.838Z,2.00
2017-12-31T07:06:59.640Z,2.00
2017-12-31T07:09:31.717Z,2.00
2017-12-31T07:12:04.751Z,1.90
2017-12-31T07:14:36.972Z,2.00
2017-12-31T07:17:07.930Z,2.10
2017-12-31T07:19:40.027Z,2.20
2017-12-31T07:22:12.928Z,2.60
2017-12-31T07:24:46.056Z,2.40
2017-12-31T07:27:18.602Z,2.50
2017-12-31T07:29:50.750Z,2.50
2017-12-31T07:32:23.191Z,2.80
2017-12-31T07:34:55.369Z,3.00
2017-12-31T07:37:27.757Z,2.70
2017-12-31T07:39:59.872Z,2.80
2017-12-31T07:42:32.876Z,2.90
2017-12-31T07:45:04.156Z,3.10
2017-12-31T07:47:36.547Z,3.60
2017-12-31T07:50:10.417Z,3.40
2017-12-31T07:52:42.648Z,3.30
2017-12-31T07:55:15.155Z,3.50
2017-12-31T07:57:48.320Z,3.30
2017-12-31T08:00:21.477Z,3.50
2017-12-31T08:02:54.391Z,3.50
2017-12-31T08:05:27.579Z,3.30
2017-12-31T08:07:59.774Z,3.50
2017-12-31T08:10:33.278Z,3.30
2017-12-31T08:13:05.786Z,3.50
2017-12-31T08:15:38.468Z,3.30
2017-12-31T08:18:11.401Z,3.30
2017-12-31T08:20:43.877Z,3.60
2017-12-31T08:23:16.027Z,3.40
2017-12-31T08:25:47.535Z,3.30
2017-12-31T08:28:19.615Z,3.00
2017-12-31T08:30:52.872Z,3.00
2017-12-31T08:33:25.479Z,3.40
2017-12-31T08:35:58.227Z,3.40
2017-12-31T08:38:31.173Z,3.40
2017-12-31T08:41:03.430Z,3.30
2017-12-31T08:43:38.612Z,3.80
2017-12-31T08:46:10.080Z,3.30
2017-12-31T08:48:43.207Z,3.60
2017-12-31T08:51:16.445Z,3.50
2017-12-31T08:53:48.072Z,3.60
2017-12-31T08:56:21.290Z,3.60
2017-12-31T08:58:54.194Z,3.80
2017-12-31T09:01:26.297Z,3.90
2017-12-31T09:03:58.969Z,3.80
2017-12-31T09:06:32.622Z,4.00
2017-12-31T09:09:04.678Z,3.60
2017-12-31T09:11:37.420Z,3.50
2017-12-31T09:14:09.700Z,3.60
2017-12-31T09:16:41.881Z,3.60
2017-12-31T09:19:14.853Z,3.60
2017-12-31T09:21:46.323Z,3.60
2017-12-31T09:24:18.427Z,3.60
2017-12-31T09:26:50.754Z,3.90
2017-12-31T09:29:23.054Z,3.80
2017-12-31T09:31:55.171Z,3.60
2017-12-31T09:34:27.457Z,3.60
2017-12-31T09:37:00.585Z,3.40
2017-12-31T09:39:32.666Z,3.70
2017-12-31T09:42:05.351Z,3.60
2017-12-31T09:44:37.518Z,3.70
2017-12-31T09:47:10.383Z,3.70
2017-12-31T09:49:43.174Z,3.60
2017-12-31T09:52:15.332Z,3.60
2017-12-31T09:54:47.740Z,3.50
2017-12-31T09:57:20.552Z,3.60
2017-12-31T09:59:53.400Z,3.40
2017-12-31T10:02:26.255Z,3.30
2017-12-31T10:04:58.362Z,3.40
2017-12-31T10:07:30.440Z,3.50
2017-12-31T10:10:02.426Z,3.60
2017-12-31T10:12:34.450Z,3.30
2017-12-31T10:15:06.893Z,3.40
2017-12-31T10:17:38.366Z,3.50
2017-12-31T10:20:10.684Z,3.40
2017-12-31T10:22:42.651Z,3.30
2017-12-31T10:25:14.594Z,3.40
2017-12-31T10:27:46.704Z,3.40
2017-12-31T10:30:19.706Z,3.30
2017-12-31T10:32:51.269Z,3.00
2017-12-31T10:35:23.950Z,2.90
2017-12-31T10:37:56.732Z,3.20
2017-12-31T10:40:29.502Z,3.00
2017-12-31T10:43:01.412Z,3.10
2017-12-31T10:45:33.615Z,3.00
2017-12-31T10:48:06.596Z,3.00
2017-12-31T10:50:38.692Z,3.10
2017-12-31T10:53:12.416Z,3.00
2017-12-31T10:55:44.492Z,3.10
2017-12-31T10:58:16.648Z,2.90
2017-12-31T11:00:49.024Z,3.20
2017-12-31T11:03:21.238Z,3.00
2017-12-31T11:05:52.783Z,3.00
2017-12-31T11:08:24.956Z,3.00
2017-12-31T11:10:56.927Z,3.20
2017-12-31T11:13:28.934Z,3.00
2017-12-31T11:16:01.128Z,3.30
2017-12-31T11:18:35.306Z,3.10
2017-12-31T11:21:08.255Z,3.00
2017-12-31T11:23:40.545Z,3.10
2017-12-31T11:26:12.525Z,3.10
2017-12-31T11:28:45.455Z,2.90
2017-12-31T11:31:17.459Z,3.00
2017-12-31T11:33:49.606Z,3.20
2017-12-31T11:36:21.591Z,3.00
2017-12-31T11:38:53.933Z,3.00
2017-12-31T11:41:25.911Z,3.20
2017-12-31T11:43:58.798Z,3.30
2017-12-31T11:46:30.800Z,3.00
2017-12-31T11:49:03.000Z,3.00
2017-12-31T11:54:14.403Z,3.30
2017-12-31T11:56:52.301Z,2.60
2017-12-31T11:59:24.399Z,2.70
2017-12-31T12:01:57.738Z,2.60
2017-12-31T12:04:29.854Z,2.50
2017-12-31T12:07:02.762Z,2.50
2017-12-31T12:09:38.975Z,2.50
2017-12-31T12:12:11.254Z,2.50
2017-12-31T12:14:43.354Z,2.50
2017-12-31T12:17:16.155Z,2.60
2017-12-31T12:19:48.346Z,2.60
2017-12-31T12:22:20.253Z,2.60
2017-12-31T12:24:52.312Z,2.60
2017-12-31T12:27:23.969Z,2.50
2017-12-31T12:29:55.945Z,2.50
2017-12-31T12:32:28.069Z,2.50
2017-12-31T12:35:00.858Z,2.50
2017-12-31T12:37:34.956Z,2.60
2017-12-31T12:40:08.673Z,2.70
2017-12-31T12:45:16.712Z,2.60
2017-12-31T12:47:48.740Z,2.70
2017-12-31T12:50:20.995Z,2.50
2017-12-31T12:52:53.039Z,2.40
2017-12-31T12:55:25.881Z,2.50
2017-12-31T12:57:57.900Z,2.50
2017-12-31T13:00:29.910Z,2.60
2017-12-31T13:03:02.744Z,2.50
2017-12-31T13:05:35.698Z,2.50
2017-12-31T13:08:07.435Z,2.30
2017-12-31T13:10:39.087Z,2.50
2017-12-31T13:13:11.075Z,2.50
2017-12-31T13:15:43.932Z,2.60
2017-12-31T13:18:16.771Z,2.40
2017-12-31T13:20:50.420Z,2.20
2017-12-31T13:23:22.611Z,2.30
2017-12-31T13:25:56.694Z,2.30
2017-12-31T13:28:28.871Z,2.30
2017-12-31T13:31:02.121Z,2.20
2017-12-31T13:33:37.843Z,2.30
2017-12-31T13:36:10.828Z,2.50
2017-12-31T13:38:43.770Z,2.30
2017-12-31T13:43:55.360Z,2.30
2017-12-31T13:46:27.296Z,2.10
2017-12-31T13:49:00.156Z,2.30
2017-12-31T13:51:33.284Z,2.10
2017-12-31T13:54:05.371Z,2.30
2017-12-31T13:56:37.433Z,1.90
2017-12-31T13:59:09.494Z,2.20
2017-12-31T14:01:43.121Z,2.10
2017-12-31T14:04:15.495Z,2.10
2017-12-31T14:06:49.193Z,2.10
2017-12-31T14:09:21.132Z,2.00
2017-12-31T14:11:53.562Z,2.00
2017-12-31T14:14:27.595Z,1.80
2017-12-31T14:16:59.678Z,1.70
2017-12-31T14:19:31.786Z,1.80
2017-12-31T14:22:04.721Z,1.70
2017-12-31T14:24:36.773Z,2.00
2017-12-31T14:27:09.678Z,1.70
2017-12-31T14:29:44.232Z,1.70
2017-12-31T14:32:16.167Z,1.80
2017-12-31T14:34:47.632Z,1.80
2017-12-31T14:37:20.138Z,1.70
2017-12-31T14:39:53.989Z,1.80
2017-12-31T14:42:26.244Z,1.40
2017-12-31T14:44:58.263Z,1.70
2017-12-31T14:47:30.691Z,1.50
2017-12-31T14:50:03.629Z,1.90
2017-12-31T14:52:35.774Z,1.70
2017-12-31T14:55:08.002Z,1.60
2017-12-31T14:57:40.033Z,1.60
2017-12-31T15:00:12.529Z,1.70
2017-12-31T15:02:46.291Z,1.30
2017-12-31T15:05:20.123Z,1.50
2017-12-31T15:07:52.352Z,1.50
2017-12-31T15:10:24.606Z,1.40
2017-12-31T15:12:57.674Z,1.40
2017-12-31T15:15:29.939Z,1.50
2017-12-31T15:18:02.276Z,1.50
2017-12-31T15:20:33.874Z,1.40
2017-12-31T15:23:06.766Z,1.20
2017-12-31T15:25:39.816Z,1.30
2017-12-31T15:28:12.094Z,1.20
2017-12-31T15:30:45.838Z,1.00
2017-12-31T15:33:18.067Z,1.10
2017-12-31T15:35:50.294Z,1.10
2017-12-31T15:38:23.571Z,1.30
2017-12-31T15:40:56.609Z,1.00
2017-12-31T15:43:28.894Z,1.00
2017-12-31T15:46:01.745Z,0.90
2017-12-31T15:48:34.701Z,0.70
2017-12-31T15:51:06.959Z,1.00
2017-12-31T15:53:39.165Z,1.10
2017-12-31T15:56:11.028Z,1.00
2017-12-31T15:58:43.195Z,1.10
2017-12-31T16:01:14.904Z,1.00
2017-12-31T16:03:47.510Z,1.00
2017-12-31T16:06:19.892Z,1.10
2017-12-31T16:08:52.057Z,1.00
2017-12-31T16:11:24.182Z,1.10
2017-12-31T16:13:57.080Z,1.00
2017-12-31T16:16:29.097Z,1.10
2017-12-31T16:19:00.778Z,1.30
2017-12-31T16:21:33.804Z,1.30
2017-12-31T16:24:05.822Z,1.10
2017-12-31T16:26:39.761Z,1.40
2017-12-31T16:29:12.011Z,1.50
2017-12-31T16:31:43.471Z,1.50
2017-12-31T16:34:16.514Z,1.50
2017-12-31T16:36:49.678Z,1.60
2017-12-31T16:39:22.117Z,1.50
2017-12-31T16:41:55.753Z,1.90
2017-12-31T16:44:28.447Z,1.70
2017-12-31T16:49:39.627Z,2.00
2017-12-31T16:52:11.701Z,2.00
2017-12-31T16:54:44.893Z,2.00
2017-12-31T16:57:16.627Z,2.00
2017-12-31T16:59:49.458Z,2.30
2017-12-31T17:02:21.380Z,2.30
2017-12-31T17:04:53.808Z,2.30
2017-12-31T17:07:27.351Z,2.30
2017-12-31T17:10:00.363Z,2.50
2017-12-31T17:12:32.879Z,2.40
2017-12-31T17:15:06.867Z,3.10
2017-12-31T17:17:38.405Z,3.60
2017-12-31T17:20:11.620Z,4.00
2017-12-31T17:22:43.805Z,4.50
2017-12-31T17:25:16.706Z,5.30
2017-12-31T17:27:49.901Z,5.30
2017-12-31T17:30:22.180Z,5.40
2017-12-31T17:32:55.226Z,6.00
2017-12-31T17:35:27.449Z,6.50
2017-12-31T17:37:59.587Z,6.90
2017-12-31T17:40:32.625Z,7.30
2017-12-31T17:43:06.726Z,7.60
2017-12-31T17:45:39.783Z,8.20
2017-12-31T17:48:13.682Z,8.30
2017-12-31T17:50:45.800Z,7.90
2017-12-31T17:53:18.961Z,8.30
2017-12-31T17:55:52.021Z,7.80
2017-12-31T17:58:23.290Z,7.40
2017-12-31T18:00:55.157Z,7.30
2017-12-31T18:03:28.416Z,7.20
2017-12-31T18:06:02.333Z,7.60
2017-12-31T18:08:36.113Z,7.80
2017-12-31T18:11:09.006Z,8.60
2017-12-31T18:13:42.877Z,9.50
2017-12-31T18:16:15.003Z,9.70
2017-12-31T18:18:47.436Z,10.10
2017-12-31T18:21:20.739Z,10.90
2017-12-31T18:23:55.151Z,11.10
2017-12-31T18:26:30.306Z,11.30
2017-12-31T18:29:01.873Z,10.50
2017-12-31T18:31:37.248Z,9.90
2017-12-31T18:34:09.586Z,9.70
2017-12-31T18:36:41.949Z,9.40
2017-12-31T18:39:14.368Z,9.30
2017-12-31T18:41:47.627Z,8.60
2017-12-31T18:44:20.926Z,8.20
2017-12-31T18:46:52.558Z,7.70
2017-12-31T18:49:25.469Z,7.50
2017-12-31T18:51:57.583Z,7.00
2017-12-31T18:54:29.236Z,7.00
2017-12-31T18:57:02.547Z,7.30
2017-12-31T18:59:35.658Z,7.90
2017-12-31T19:02:08.747Z,8.20
2017-12-31T19:04:41.548Z,8.10
2017-12-31T19:07:14.751Z,8.40
2017-12-31T19:09:48.713Z,8.60
2017-12-31T19:12:20.916Z,8.60
2017-12-31T19:14:53.453Z,9.00
2017-12-31T19:17:27.374Z,9.30
2017-12-31T19:20:00.406Z,9.10
2017-12-31T19:22:32.073Z,9.10
2017-12-31T19:25:04.317Z,9.30
2017-12-31T19:27:36.399Z,9.30
2017-12-31T19:30:08.553Z,9.40
2017-12-31T19:32:41.603Z,9.40
2017-12-31T19:35:14.806Z,8.90
2017-12-31T19:37:47.824Z,8.60
2017-12-31T19:42:57.000Z,8.60
2017-12-31T19:45:29.861Z,8.60
2017-12-31T19:48:02.216Z,8.30
2017-12-31T19:50:34.375Z,8.60
2017-12-31T19:53:07.780Z,8.50
2017-12-31T19:55:39.905Z,8.50
2017-12-31T19:58:12.090Z,8.40
2017-12-31T20:00:44.324Z,8.60
2017-12-31T20:03:15.997Z,8.60
2017-12-31T20:05:48.068Z,8.60
2017-12-31T20:08:21.153Z,8.20
2017-12-31T20:10:55.099Z,7.90
2017-12-31T20:13:31.112Z,7.70
2017-12-31T20:16:04.890Z,7.60
2017-12-31T20:18:39.560Z,7.30
2017-12-31T20:21:12.503Z,7.40
2017-12-31T20:23:46.422Z,7.40
2017-12-31T20:26:24.307Z,7.40
2017-12-31T20:31:32.567Z,7.20
2017-12-31T20:34:05.958Z,7.30
2017-12-31T20:36:38.304Z,7.40
2017-12-31T20:39:11.697Z,7.30
2017-12-31T20:41:43.343Z,7.30
2017-12-31T20:44:15.885Z,7.30
2017-12-31T20:46:49.948Z,7.50
2017-12-31T20:49:23.976Z,7.20
2017-12-31T20:51:56.225Z,7.40
2017-12-31T20:54:29.083Z,7.30
2017-12-31T20:57:02.109Z,7.30
2017-12-31T20:59:34.446Z,7.40
2017-12-31T21:02:06.107Z,7.50
2017-12-31T21:04:41.818Z,7.20
2017-12-31T21:07:18.008Z,7.50
2017-12-31T21:09:52.605Z,7.20
2017-12-31T21:12:26.488Z,7.20
2017-12-31T21:14:59.693Z,7.40
2017-12-31T21:17:33.868Z,7.30
2017-12-31T21:20:08.132Z,7.20
2017-12-31T21:22:40.843Z,7.20
2017-12-31T21:25:14.232Z,7.20
2017-12-31T21:27:47.187Z,7.40
2017-12-31T21:30:20.458Z,7.30
2017-12-31T21:32:53.572Z,7.30
2017-12-31T21:35:26.598Z,7.20
2017-12-31T21:37:58.887Z,7.20
2017-12-31T21:40:31.109Z,7.20
2017-12-31T21:43:04.010Z,7.20
2017-12-31T21:45:37.699Z,7.30
2017-12-31T21:48:10.673Z,7.30
2017-12-31T21:50:43.888Z,7.30
2017-12-31T21:53:17.717Z,7.30
2017-12-31T21:55:51.536Z,7.20
2017-12-31T21:58:23.950Z,7.20
2017-12-31T22:00:55.522Z,7.10
2017-12-31T22:03:27.993Z,7.20
2017-12-31T22:06:01.654Z,7.20
2017-12-31T22:08:33.891Z,7.00
2017-12-31T22:11:06.060Z,7.20
2017-12-31T22:13:39.877Z,7.20
2017-12-31T22:16:13.033Z,7.20
2017-12-31T22:18:45.945Z,7.20
2017-12-31T22:21:25.320Z,7.20
2017-12-31T22:23:58.326Z,6.90
2017-12-31T22:26:32.048Z,7.10
2017-12-31T22:29:05.282Z,6.90
2017-12-31T22:31:39.531Z,7.20
2017-12-31T22:34:12.697Z,7.00
2017-12-31T22:36:47.552Z,6.90
2017-12-31T22:39:20.560Z,6.90
2017-12-31T22:44:28.624Z,7.00
2017-12-31T22:47:05.757Z,6.90
2017-12-31T22:52:20.421Z,6.90
2017-12-31T22:54:56.526Z,6.80
2017-12-31T22:57:28.986Z,6.90
2017-12-31T23:00:02.085Z,6.80
2017-12-31T23:02:38.052Z,6.60
2017-12-31T23:05:11.166Z,6.90
2017-12-31T23:07:43.672Z,6.80
2017-12-31T23:10:22.944Z,7.00
2017-12-31T23:12:57.351Z,6.60
2017-12-31T23:15:32.252Z,6.90
2017-12-31T23:18:05.841Z,6.80
2017-12-31T23:20:39.847Z,6.70
2017-12-31T23:23:13.151Z,6.60
2017-12-31T23:25:45.178Z,6.70
2017-12-31T23:28:19.052Z,6.70
2017-12-31T23:30:52.303Z,6.60
2017-12-31T23:33:24.237Z,6.80
2017-12-31T23:35:57.756Z,6.60
2017-12-31T23:38:29.359Z,6.50
2017-12-31T23:41:02.343Z,6.50
2017-12-31T23:43:35.420Z,6.70
2017-12-31T23:46:09.630Z,6.30
2017-12-31T23:48:43.524Z,6.30
2017-12-31T23:51:15.765Z,6.10
2017-12-31T23:53:47.282Z,6.30
2017-12-31T23:56:21.751Z,6.30
2017-12-31T23:58:55.076Z,6.20
